createdAt,value
2023-01-03T00:02:51.749Z,1016.11
2023-01-03T00:07:52.480Z,1016.10
2023-01-03T00:12:53.210Z,1016.21
2023-01-03T00:17:53.937Z,1016.28
2023-01-03T00:22:54.697Z,1016.31
2023-01-03T00:27:55.399Z,1016.42
2023-01-03T00:32:56.140Z,1016.52
2023-01-03T00:37:56.904Z,1016.63
2023-01-03T00:42:57.682Z,1016.66
2023-01-03T00:47:59.384Z,1016.70
2023-01-03T00:52:59.141Z,1016.71
2023-01-03T00:57:59.860Z,1016.80
2023-01-03T01:03:00.976Z,1016.89
2023-01-03T01:08:01.309Z,1016.88
2023-01-03T01:13:02.027Z,1017.00
2023-01-03T01:18:02.759Z,1017.12
2023-01-03T01:23:10.606Z,1017.24
2023-01-03T01:28:04.264Z,1017.35
2023-01-03T01:33:04.994Z,1017.43
2023-01-03T01:38:05.733Z,1017.46
2023-01-03T01:43:06.480Z,1017.58
2023-01-03T01:48:07.192Z,1017.67
2023-01-03T01:53:07.909Z,1017.76
2023-01-03T01:58:08.640Z,1017.76
2023-01-03T02:03:09.527Z,1017.78
2023-01-03T02:08:10.299Z,1017.82
2023-01-03T02:13:11.061Z,1017.88
2023-01-03T02:18:11.737Z,1017.92
2023-01-03T02:23:12.477Z,1017.95
2023-01-03T02:28:13.195Z,1018.04
2023-01-03T02:33:13.901Z,1018.14
2023-01-03T02:38:14.614Z,1018.24
2023-01-03T02:43:15.492Z,1018.28
2023-01-03T02:48:16.160Z,1018.26
2023-01-03T02:53:16.981Z,1018.24
2023-01-03T02:58:17.745Z,1018.27
2023-01-03T03:03:18.604Z,1018.40
2023-01-03T03:08:19.316Z,1018.49
2023-01-03T03:13:20.051Z,1018.53
2023-01-03T03:18:20.783Z,1018.54
2023-01-03T03:23:21.486Z,1018.55
2023-01-03T03:28:22.209Z,1018.61
2023-01-03T03:33:22.943Z,1018.61
2023-01-03T03:38:23.636Z,1018.68
2023-01-03T03:43:24.500Z,1018.72
2023-01-03T03:48:25.246Z,1018.74
2023-01-03T03:53:25.936Z,1018.78
2023-01-03T03:58:26.665Z,1018.85
2023-01-03T04:03:27.453Z,1018.91
2023-01-03T04:08:28.166Z,1018.93
2023-01-03T04:13:28.854Z,1019.01
2023-01-03T04:18:29.666Z,1019.04
2023-01-03T04:23:30.389Z,1019.15
2023-01-03T04:28:31.113Z,1019.22
2023-01-03T04:33:31.819Z,1019.33
2023-01-03T04:38:32.541Z,1019.44
2023-01-03T04:43:33.268Z,1019.55
2023-01-03T04:48:34.016Z,1019.62
2023-01-03T04:53:34.720Z,1019.69
2023-01-03T04:58:35.432Z,1019.73
2023-01-03T05:03:36.176Z,1019.76
2023-01-03T05:08:36.869Z,1019.80
2023-01-03T05:13:37.582Z,1019.83
2023-01-03T05:18:38.419Z,1019.91
2023-01-03T05:23:39.251Z,1019.95
2023-01-03T05:28:39.937Z,1019.99
2023-01-03T05:33:40.628Z,1019.97
2023-01-03T05:38:41.371Z,1019.97
2023-01-03T05:43:42.072Z,1020.05
2023-01-03T05:48:42.842Z,1020.12
2023-01-03T05:53:43.565Z,1020.11
2023-01-03T05:58:44.272Z,1020.15
2023-01-03T06:03:45.138Z,1020.20
2023-01-03T06:08:45.933Z,1020.26
2023-01-03T06:13:46.681Z,1020.30
2023-01-03T06:18:47.386Z,1020.32
2023-01-03T06:23:48.091Z,1020.40
2023-01-03T06:28:48.837Z,1020.44
2023-01-03T06:33:49.587Z,1020.46
2023-01-03T06:38:50.267Z,1020.55
2023-01-03T06:43:50.934Z,1020.57
2023-01-03T06:48:51.634Z,1020.64
2023-01-03T06:53:52.330Z,1020.64
2023-01-03T06:58:52.957Z,1020.72
2023-01-03T07:03:53.661Z,1020.83
2023-01-03T07:08:54.297Z,1020.85
2023-01-03T07:13:54.984Z,1020.95
2023-01-03T07:18:55.870Z,1021.01
2023-01-03T07:24:03.570Z,1021.05
2023-01-03T07:28:57.185Z,1021.11
2023-01-03T07:33:57.864Z,1021.17
2023-01-03T07:38:58.511Z,1021.19
2023-01-03T07:43:59.238Z,1021.23
2023-01-03T07:48:59.887Z,1021.23
2023-01-03T07:54:00.564Z,1021.30
2023-01-03T07:59:01.218Z,1021.31
2023-01-03T08:04:01.883Z,1021.31
2023-01-03T08:09:06.069Z,1021.36
2023-01-03T08:14:03.104Z,1021.49
2023-01-03T08:19:03.697Z,1021.56
2023-01-03T08:24:04.367Z,1021.63
2023-01-03T08:29:05.028Z,1021.67
2023-01-03T08:34:11.856Z,1021.71
2023-01-03T08:39:07.255Z,1021.76
2023-01-03T08:44:06.911Z,1021.76
2023-01-03T08:49:07.569Z,1021.75
2023-01-03T08:54:08.275Z,1021.78
2023-01-03T08:59:09.021Z,1021.85
2023-01-03T09:04:09.856Z,1021.90
2023-01-03T09:09:10.536Z,1022.03
2023-01-03T09:14:11.223Z,1022.09
2023-01-03T09:19:11.860Z,1022.15
2023-01-03T09:24:12.532Z,1022.24
2023-01-03T09:29:13.231Z,1022.26
2023-01-03T09:34:13.926Z,1022.33
2023-01-03T09:39:14.546Z,1022.32
2023-01-03T09:44:15.223Z,1022.31
2023-01-03T09:49:15.906Z,1022.33
2023-01-03T09:54:16.594Z,1022.25
2023-01-03T09:59:17.245Z,1022.25
2023-01-03T10:04:18.179Z,1022.29
2023-01-03T10:09:18.825Z,1022.25
2023-01-03T10:14:19.580Z,1022.28
2023-01-03T10:19:20.208Z,1022.32
2023-01-03T10:24:20.877Z,1022.32
2023-01-03T10:29:21.564Z,1022.29
2023-01-03T10:34:22.211Z,1022.34
2023-01-03T10:39:22.880Z,1022.32
2023-01-03T10:44:23.563Z,1022.35
2023-01-03T10:49:29.320Z,1022.31
2023-01-03T10:54:25.759Z,1022.29
2023-01-03T10:59:25.436Z,1022.30
2023-01-03T11:04:26.092Z,1022.33
2023-01-03T11:09:26.793Z,1022.34
2023-01-03T11:14:27.409Z,1022.34
2023-01-03T11:19:28.085Z,1022.33
2023-01-03T11:24:28.776Z,1022.35
2023-01-03T11:29:29.402Z,1022.28
2023-01-03T11:34:48.123Z,1022.27
2023-01-03T11:39:31.623Z,1022.27
2023-01-03T11:44:31.261Z,1022.32
2023-01-03T11:49:31.921Z,1022.33
2023-01-03T11:54:32.625Z,1022.33
2023-01-03T11:59:33.313Z,1022.34
2023-01-03T12:04:34.012Z,1022.30
2023-01-03T12:09:34.651Z,1022.27
2023-01-03T12:14:35.475Z,1022.24
2023-01-03T12:19:36.174Z,1022.22
2023-01-03T12:24:36.832Z,1022.26
2023-01-03T12:29:37.513Z,1022.29
2023-01-03T12:34:38.164Z,1022.26
2023-01-03T12:39:38.823Z,1022.21
2023-01-03T12:44:39.581Z,1022.22
2023-01-03T12:49:40.278Z,1022.19
2023-01-03T12:54:40.942Z,1022.23
2023-01-03T12:59:41.641Z,1022.21
2023-01-03T13:04:42.275Z,1022.21
2023-01-03T13:09:42.931Z,1022.19
2023-01-03T13:14:43.605Z,1022.13
2023-01-03T13:19:44.291Z,1022.05
2023-01-03T13:24:51.953Z,1021.99
2023-01-03T13:29:45.606Z,1021.96
2023-01-03T13:34:46.295Z,1021.95
2023-01-03T13:39:46.956Z,1022.02
2023-01-03T13:44:47.673Z,1022.04
2023-01-03T13:49:53.674Z,1021.96
2023-01-03T13:54:49.902Z,1021.94
2023-01-03T13:59:49.555Z,1021.97
2023-01-03T14:04:50.225Z,1022.04
2023-01-03T14:09:50.911Z,1022.02
2023-01-03T14:14:51.599Z,1022.02
2023-01-03T14:19:52.246Z,1022.01
2023-01-03T14:24:52.918Z,1022.06
2023-01-03T14:29:53.584Z,1022.06
2023-01-03T14:34:54.277Z,1022.07
2023-01-03T14:39:54.925Z,1022.10
2023-01-03T14:44:56.611Z,1022.16
2023-01-03T14:49:56.278Z,1022.19
2023-01-03T14:55:03.417Z,1022.16
2023-01-03T14:59:58.456Z,1022.15
2023-01-03T15:04:58.118Z,1022.19
2023-01-03T15:09:58.808Z,1022.23
2023-01-03T15:14:59.463Z,1022.17
2023-01-03T15:20:00.174Z,1022.18
2023-01-03T15:25:00.901Z,1022.22
2023-01-03T15:30:01.593Z,1022.25
2023-01-03T15:35:02.221Z,1022.31
2023-01-03T15:40:02.915Z,1022.41
2023-01-03T15:45:03.607Z,1022.42
2023-01-03T15:50:04.315Z,1022.46
2023-01-03T15:55:05.125Z,1022.49
2023-01-03T16:00:05.803Z,1022.50
2023-01-03T16:05:06.558Z,1022.46
2023-01-03T16:10:07.275Z,1022.50
2023-01-03T16:15:08.001Z,1022.50
2023-01-03T16:20:08.696Z,1022.53
2023-01-03T16:25:09.461Z,1022.53
2023-01-03T16:30:10.102Z,1022.50
2023-01-03T16:35:10.850Z,1022.49
2023-01-03T16:40:11.505Z,1022.52
2023-01-03T16:45:12.499Z,1022.47
2023-01-03T16:50:13.374Z,1022.53
2023-01-03T16:55:14.053Z,1022.55
2023-01-03T17:00:15.856Z,1022.62
2023-01-03T17:05:15.586Z,1022.63
2023-01-03T17:10:16.324Z,1022.60
2023-01-03T17:15:17.036Z,1022.59
2023-01-03T17:20:17.767Z,1022.62
2023-01-03T17:25:18.472Z,1022.62
2023-01-03T17:30:19.179Z,1022.62
2023-01-03T17:35:19.926Z,1022.62
2023-01-03T17:40:20.621Z,1022.64
2023-01-03T17:45:21.334Z,1022.69
2023-01-03T17:50:22.120Z,1022.66
2023-01-03T17:55:22.973Z,1022.63
2023-01-03T18:00:23.696Z,1022.64
2023-01-03T18:05:27.513Z,1022.66
2023-01-03T18:10:25.277Z,1022.60
2023-01-03T18:15:26.011Z,1022.55
2023-01-03T18:20:26.863Z,1022.51
2023-01-03T18:25:27.587Z,1022.44
2023-01-03T18:30:28.358Z,1022.36
2023-01-03T18:35:35.657Z,1022.40
2023-01-03T18:40:30.764Z,1022.43
2023-01-03T18:45:30.498Z,1022.41
2023-01-03T18:50:31.164Z,1022.45
2023-01-03T18:55:31.916Z,1022.42
2023-01-03T19:00:32.663Z,1022.41
2023-01-03T19:05:33.361Z,1022.44
2023-01-03T19:10:34.183Z,1022.52
2023-01-03T19:15:34.980Z,1022.53
2023-01-03T19:20:39.191Z,1022.49
2023-01-03T19:25:36.469Z,1022.40
2023-01-03T19:30:38.077Z,1022.29
2023-01-03T19:35:37.870Z,1022.23
2023-01-03T19:40:38.718Z,1022.15
2023-01-03T19:45:39.482Z,1022.13
2023-01-03T19:50:40.217Z,1022.14
2023-01-03T19:55:40.883Z,1022.10
2023-01-03T20:00:41.837Z,1021.98
2023-01-03T20:05:42.503Z,1021.93
2023-01-03T20:10:43.211Z,1021.92
2023-01-03T20:15:44.041Z,1021.84
2023-01-03T20:20:44.864Z,1021.91
2023-01-03T20:25:45.590Z,1021.84
2023-01-03T20:30:46.349Z,1021.82
2023-01-03T20:40:49.817Z,1021.80
2023-01-03T20:45:48.572Z,1021.75
2023-01-03T20:50:49.296Z,1021.75
2023-01-03T20:55:50.080Z,1021.70
2023-01-03T21:00:50.913Z,1021.74
2023-01-03T21:05:51.630Z,1021.67
2023-01-03T21:10:52.368Z,1021.65
2023-01-03T21:15:53.184Z,1021.62
2023-01-03T21:20:54.007Z,1021.53
2023-01-03T21:25:54.722Z,1021.51
2023-01-03T21:30:59.926Z,1021.50
2023-01-03T21:35:57.169Z,1021.40
2023-01-03T21:40:56.853Z,1021.37
2023-01-03T21:45:57.658Z,1021.41
2023-01-03T21:50:58.513Z,1021.41
2023-01-03T21:55:59.235Z,1021.43
2023-01-03T22:01:00.667Z,1021.44
2023-01-03T22:06:07.875Z,1021.42
2023-01-03T22:11:01.635Z,1021.46
2023-01-03T22:16:02.435Z,1021.45
2023-01-03T22:21:03.142Z,1021.37
2023-01-03T22:26:03.931Z,1021.33
2023-01-03T22:31:04.693Z,1021.21
2023-01-03T22:36:05.470Z,1021.23
2023-01-03T22:41:06.218Z,1021.20
2023-01-03T22:46:07.027Z,1021.13
2023-01-03T22:51:07.763Z,1021.00
2023-01-03T22:56:08.507Z,1020.99
2023-01-03T23:01:09.472Z,1020.98
2023-01-03T23:06:09.809Z,1020.91
2023-01-03T23:11:10.594Z,1020.85
2023-01-03T23:16:11.436Z,1020.82
2023-01-03T23:21:12.146Z,1020.72
2023-01-03T23:26:12.922Z,1020.60
2023-01-03T23:31:13.757Z,1020.51
2023-01-03T23:36:14.486Z,1020.43
2023-01-03T23:41:15.286Z,1020.38
2023-01-03T23:46:16.129Z,1020.42
2023-01-03T23:51:17.001Z,1020.38
2023-01-03T23:56:17.836Z,1020.33
